Fort Nelson Airport
CYYE : now visible

Airfield :











YOU CAN JOIN US ON...

 
LOGIN :

Register | Disclaimer

   EN    FR    IT 

 









Legend :    VFR   Marginal VFR   IFR   Intensive IFR   Very Intensive IFR
Visi :
Ceiling :
>= 8 km
>= 3000ft
5 to 8 km
1000 to 3000 ft
1500m to 5 km
500 to 1000 ft
800 to 1500m
200 to 500 ft
< 800m
< 200 ft
Symbols :   Thunderstorms  Fog  Heavy snow  Heavy precipitations  Wind > 20 kt






- Airport Elevation : 1253 ft
- IATA code : YYE


CYYE - Fort Nelson

CURRENT METAR :
  • 180500Z 24004KT 15SM SCT056 M24/M26 A3031 RMK SC3 SLP319

EXPIRED METARs :
  • 180400Z 00000KT 15SM SCT056 M22/M25 A3032 RMK SC4 SLP324
  • 180300Z 00000KT 15SM SCT059 M21/M24 A3033 RMK SC4 SLP327

TAF TAF CYYE
Valid from the 18 at 01:00 until the 18 at 13:00 UTC


180038Z 1801/1813 12005KT P6SM BKN060
TEMPO 1801/1803 SCT060
FM180300 VRB03KT P6SM FEW060
FM181200 VRB03KT P6SM SCT060
TEMPO 1812/1813 P6SM -SN BKN060 RMK NXT FCST BY 180700Z



MET'MAP, your aeronautical weather chart ! - Copyright ORBIFLY December 2007 - Disclaimer

ORBIFLY MET'MAP TEAM :

Programming & Development : Alexandra Zaïnal
Concept & original design : Baudouin d'Aumeries
Assistance for programming : Marc-Olivier Méhu
Technical & hardware support : Manuel Goepfert

Contact : metmap@orbifly.com




SOURCES & CREDITS :

   NOAA       Earth
Advisory